sensor_id;sensor_type;location;lat;lon;timestamp;pressure;altitude;pressure_sealevel;temperature;humidity
40650;BME280;26342;42.826;23.992;2023-04-25T00:00:40;94544.72;;;10.42;100.00
40650;BME280;26342;42.826;23.992;2023-04-25T00:03:05;94545.78;;;10.41;100.00
40650;BME280;26342;42.826;23.992;2023-04-25T00:05:31;94552.22;;;10.34;100.00
40650;BME280;26342;42.826;23.992;2023-04-25T00:07:57;94546.84;;;10.40;100.00
40650;BME280;26342;42.826;23.992;2023-04-25T00:10:22;94549.78;;;10.43;100.00
40650;BME280;26342;42.826;23.992;2023-04-25T00:12:48;94543.38;;;10.44;100.00
40650;BME280;26342;42.826;23.992;2023-04-25T00:15:14;94552.97;;;10.45;100.00
40650;BME280;26342;42.826;23.992;2023-04-25T00:17:41;94539.38;;;10.42;100.00
40650;BME280;26342;42.826;23.992;2023-04-25T00:20:07;94555.13;;;10.43;100.00
40650;BME280;26342;42.826;23.992;2023-04-25T00:22:34;94548.72;;;10.39;100.00
40650;BME280;26342;42.826;23.992;2023-04-25T00:25:03;94554.34;;;10.38;100.00
40650;BME280;26342;42.826;23.992;2023-04-25T00:27:28;94553.78;;;10.41;100.00
40650;BME280;26342;42.826;23.992;2023-04-25T00:29:54;94557.00;;;10.43;100.00
40650;BME280;26342;42.826;23.992;2023-04-25T00:32:19;94549.25;;;10.41;100.00
40650;BME280;26342;42.826;23.992;2023-04-25T00:34:45;94553.47;;;10.47;100.00
40650;BME280;26342;42.826;23.992;2023-04-25T00:37:10;94545.75;;;10.51;100.00
40650;BME280;26342;42.826;23.992;2023-04-25T00:39:36;94533.53;;;10.40;100.00
40650;BME280;26342;42.826;23.992;2023-04-25T00:42:02;94538.19;;;10.58;100.00
40650;BME280;26342;42.826;23.992;2023-04-25T00:44:29;94536.38;;;10.53;100.00
40650;BME280;26342;42.826;23.992;2023-04-25T00:46:55;94543.38;;;10.44;100.00
40650;BME280;26342;42.826;23.992;2023-04-25T00:49:21;94548.16;;;10.47;100.00
40650;BME280;26342;42.826;23.992;2023-04-25T00:51:47;94547.06;;;10.48;100.00
40650;BME280;26342;42.826;23.992;2023-04-25T00:54:13;94546.00;;;10.49;100.00
40650;BME280;26342;42.826;23.992;2023-04-25T00:56:41;94546.06;;;10.39;100.00
40650;BME280;26342;42.826;23.992;2023-04-25T00:59:07;94541.53;;;10.34;100.00
40650;BME280;26342;42.826;23.992;2023-04-25T01:01:33;94533.03;;;10.32;100.00
40650;BME280;26342;42.826;23.992;2023-04-25T01:04:00;94542.63;;;10.33;100.00
40650;BME280;26342;42.826;23.992;2023-04-25T01:06:26;94542.03;;;10.42;100.00
40650;BME280;26342;42.826;23.992;2023-04-25T01:08:54;94542.00;;;10.52;100.00
40650;BME280;26342;42.826;23.992;2023-04-25T01:11:19;94547.63;;;10.45;100.00
40650;BME280;26342;42.826;23.992;2023-04-25T01:13:45;94534.50;;;10.54;100.00
40650;BME280;26342;42.826;23.992;2023-04-25T01:16:10;94510.00;;;10.47;100.00
40650;BME280;26342;42.826;23.992;2023-04-25T01:18:38;94469.91;;;10.57;100.00
40650;BME280;26342;42.826;23.992;2023-04-25T01:21:10;94472.09;;;10.50;100.00
40650;BME280;26342;42.826;23.992;2023-04-25T01:23:37;94476.44;;;10.41;100.00
40650;BME280;26342;42.826;23.992;2023-04-25T01:26:03;94483.94;;;10.39;100.00
40650;BME280;26342;42.826;23.992;2023-04-25T01:28:29;94481.03;;;10.35;100.00
40650;BME280;26342;42.826;23.992;2023-04-25T01:30:54;94476.81;;;10.24;100.00
40650;BME280;26342;42.826;23.992;2023-04-25T01:33:21;94483.47;;;10.26;100.00
40650;BME280;26342;42.826;23.992;2023-04-25T01:35:47;94475.75;;;10.20;100.00
40650;BME280;26342;42.826;23.992;2023-04-25T01:38:13;94471.22;;;10.20;100.00
40650;BME280;26342;42.826;23.992;2023-04-25T01:40:40;94473.13;;;10.15;100.00
40650;BME280;26342;42.826;23.992;2023-04-25T01:43:07;94462.44;;;10.15;100.00
40650;BME280;26342;42.826;23.992;2023-04-25T01:45:33;94465.13;;;10.10;100.00
40650;BME280;26342;42.826;23.992;2023-04-25T01:47:59;94455.63;;;9.93;100.00
40650;BME280;26342;42.826;23.992;2023-04-25T01:50:25;94464.19;;;9.90;100.00
40650;BME280;26342;42.826;23.992;2023-04-25T01:52:50;94469.72;;;10.04;100.00
40650;BME280;26342;42.826;23.992;2023-04-25T01:55:16;94474.19;;;10.14;100.00
40650;BME280;26342;42.826;23.992;2023-04-25T01:57:41;94463.75;;;10.17;100.00
40650;BME280;26342;42.826;23.992;2023-04-25T02:00:07;94465.34;;;10.23;100.00
40650;BME280;26342;42.826;23.992;2023-04-25T02:02:34;94455.91;;;10.41;100.00
40650;BME280;26342;42.826;23.992;2023-04-25T02:05:00;94446.38;;;10.35;100.00
40650;BME280;26342;42.826;23.992;2023-04-25T02:07:26;94457.47;;;10.47;100.00
40650;BME280;26342;42.826;23.992;2023-04-25T02:09:52;94445.97;;;10.52;100.00
40650;BME280;26342;42.826;23.992;2023-04-25T02:12:18;94450.72;;;10.60;100.00
40650;BME280;26342;42.826;23.992;2023-04-25T02:14:43;94442.13;;;10.63;100.00
40650;BME280;26342;42.826;23.992;2023-04-25T02:17:09;94446.41;;;10.64;100.00
40650;BME280;26342;42.826;23.992;2023-04-25T02:19:34;94444.22;;;10.66;100.00
40650;BME280;26342;42.826;23.992;2023-04-25T02:22:01;94445.06;;;10.67;100.00
40650;BME280;26342;42.826;23.992;2023-04-25T02:24:26;94441.13;;;10.59;100.00
40650;BME280;26342;42.826;23.992;2023-04-25T02:26:53;94432.06;;;10.55;100.00
40650;BME280;26342;42.826;23.992;2023-04-25T02:29:20;94436.84;;;10.58;100.00
40650;BME280;26342;42.826;23.992;2023-04-25T02:31:45;94441.44;;;10.52;100.00
40650;BME280;26342;42.826;23.992;2023-04-25T02:34:11;94436.41;;;10.46;100.00
40650;BME280;26342;42.826;23.992;2023-04-25T02:36:36;94436.97;;;10.43;100.00
40650;BME280;26342;42.826;23.992;2023-04-25T02:39:02;94444.53;;;10.30;100.00
40650;BME280;26342;42.826;23.992;2023-04-25T02:41:28;94433.78;;;9.96;100.00
40650;BME280;26342;42.826;23.992;2023-04-25T02:43:53;94432.72;;;9.92;100.00
40650;BME280;26342;42.826;23.992;2023-04-25T02:46:20;94431.94;;;9.92;100.00
40650;BME280;26342;42.826;23.992;2023-04-25T02:48:45;94426.88;;;9.90;100.00
40650;BME280;26342;42.826;23.992;2023-04-25T02:51:11;94430.13;;;9.82;100.00
40650;BME280;26342;42.826;23.992;2023-04-25T02:53:37;94433.06;;;9.75;100.00
40650;BME280;26342;42.826;23.992;2023-04-25T02:56:03;94434.69;;;9.71;100.00
40650;BME280;26342;42.826;23.992;2023-04-25T02:58:29;94430.19;;;9.72;100.00
40650;BME280;26342;42.826;23.992;2023-04-25T03:01:03;94436.31;;;9.72;100.00
40650;BME280;26342;42.826;23.992;2023-04-25T03:03:28;94439.19;;;9.76;100.00
40650;BME280;26342;42.826;23.992;2023-04-25T03:05:54;94435.50;;;9.72;100.00
40650;BME280;26342;42.826;23.992;2023-04-25T03:08:19;94432.56;;;9.68;100.00
40650;BME280;26342;42.826;23.992;2023-04-25T03:10:45;94442.72;;;9.61;100.00
40650;BME280;26342;42.826;23.992;2023-04-25T03:13:11;94442.22;;;9.59;100.00
40650;BME280;26342;42.826;23.992;2023-04-25T03:15:37;94438.75;;;9.64;100.00
40650;BME280;26342;42.826;23.992;2023-04-25T03:18:03;94446.47;;;9.60;100.00
40650;BME280;26342;42.826;23.992;2023-04-25T03:20:28;94434.47;;;9.63;100.00
40650;BME280;26342;42.826;23.992;2023-04-25T03:22:56;94434.72;;;9.66;100.00
40650;BME280;26342;42.826;23.992;2023-04-25T03:25:21;94429.69;;;9.65;100.00
40650;BME280;26342;42.826;23.992;2023-04-25T03:27:47;94434.44;;;9.68;100.00
40650;BME280;26342;42.826;23.992;2023-04-25T03:30:12;94438.41;;;9.75;100.00
40650;BME280;26342;42.826;23.992;2023-04-25T03:32:38;94437.84;;;9.78;100.00
40650;BME280;26342;42.826;23.992;2023-04-25T03:35:04;94436.81;;;9.74;100.00
40650;BME280;26342;42.826;23.992;2023-04-25T03:37:30;94429.34;;;9.71;100.00
40650;BME280;26342;42.826;23.992;2023-04-25T03:39:55;94423.56;;;9.64;100.00
40650;BME280;26342;42.826;23.992;2023-04-25T03:42:22;94430.75;;;9.64;100.00
40650;BME280;26342;42.826;23.992;2023-04-25T03:44:48;94442.22;;;9.59;100.00
40650;BME280;26342;42.826;23.992;2023-04-25T03:47:14;94438.25;;;9.51;100.00
40650;BME280;26342;42.826;23.992;2023-04-25T03:49:41;94445.44;;;9.51;100.00
40650;BME280;26342;42.826;23.992;2023-04-25T03:52:06;94444.66;;;9.45;100.00
40650;BME280;26342;42.826;23.992;2023-04-25T03:54:31;94435.63;;;9.36;100.00
40650;BME280;26342;42.826;23.992;2023-04-25T03:56:57;94437.22;;;9.37;100.00
40650;BME280;26342;42.826;23.992;2023-04-25T03:59:22;94442.00;;;9.45;100.00
40650;BME280;26342;42.826;23.992;2023-04-25T04:01:48;94448.38;;;9.49;100.00
40650;BME280;26342;42.826;23.992;2023-04-25T04:04:13;94451.56;;;9.46;100.00
40650;BME280;26342;42.826;23.992;2023-04-25T04:06:39;94456.38;;;9.44;100.00
40650;BME280;26342;42.826;23.992;2023-04-25T04:09:05;94452.91;;;9.44;100.00
40650;BME280;26342;42.826;23.992;2023-04-25T04:11:35;94452.94;;;9.39;100.00
40650;BME280;26342;42.826;23.992;2023-04-25T04:14:01;94452.69;;;9.40;100.00
40650;BME280;26342;42.826;23.992;2023-04-25T04:16:28;94458.56;;;9.27;100.00
40650;BME280;26342;42.826;23.992;2023-04-25T04:18:53;94442.88;;;9.15;100.00
40650;BME280;26342;42.826;23.992;2023-04-25T04:21:19;94445.28;;;9.17;100.00
40650;BME280;26342;42.826;23.992;2023-04-25T04:23:44;94447.91;;;9.22;100.00
40650;BME280;26342;42.826;23.992;2023-04-25T04:26:10;94462.53;;;9.30;100.00
40650;BME280;26342;42.826;23.992;2023-04-25T04:28:36;94455.34;;;9.35;100.00
40650;BME280;26342;42.826;23.992;2023-04-25T04:31:03;94451.06;;;9.39;100.00
40650;BME280;26342;42.826;23.992;2023-04-25T04:33:28;94453.97;;;9.48;100.00
40650;BME280;26342;42.826;23.992;2023-04-25T04:35:56;94451.28;;;9.53;100.00
40650;BME280;26342;42.826;23.992;2023-04-25T04:38:21;94448.91;;;9.46;100.00
40650;BME280;26342;42.826;23.992;2023-04-25T04:40:46;94451.28;;;9.53;100.00
40650;BME280;26342;42.826;23.992;2023-04-25T04:43:12;94449.19;;;9.50;100.00
40650;BME280;26342;42.826;23.992;2023-04-25T04:45:38;94451.56;;;9.51;100.00
40650;BME280;26342;42.826;23.992;2023-04-25T04:48:06;94459.22;;;9.63;100.00
40650;BME280;26342;42.826;23.992;2023-04-25T04:50:31;94461.66;;;9.60;100.00
40650;BME280;26342;42.826;23.992;2023-04-25T04:52:57;94452.28;;;9.67;100.00
40650;BME280;26342;42.826;23.992;2023-04-25T04:55:24;94454.38;;;9.75;100.00
40650;BME280;26342;42.826;23.992;2023-04-25T04:57:50;94449.28;;;9.89;100.00
40650;BME280;26342;42.826;23.992;2023-04-25T05:00:16;94445.75;;;9.99;100.00
40650;BME280;26342;42.826;23.992;2023-04-25T05:02:41;94442.19;;;10.14;100.00
40650;BME280;26342;42.826;23.992;2023-04-25T05:05:07;94450.06;;;10.34;100.00
40650;BME280;26342;42.826;23.992;2023-04-25T05:07:33;94453.97;;;10.52;100.00
40650;BME280;26342;42.826;23.992;2023-04-25T05:09:59;94447.75;;;10.61;100.00
40650;BME280;26342;42.826;23.992;2023-04-25T05:12:24;94446.47;;;10.88;100.00
40650;BME280;26342;42.826;23.992;2023-04-25T05:14:53;94449.50;;;11.05;100.00
40650;BME280;26342;42.826;23.992;2023-04-25T05:17:19;94451.44;;;11.00;100.00
40650;BME280;26342;42.826;23.992;2023-04-25T05:19:46;94450.06;;;11.02;100.00
40650;BME280;26342;42.826;23.992;2023-04-25T05:22:11;94440.88;;;11.13;100.00
40650;BME280;26342;42.826;23.992;2023-04-25T05:24:36;94445.84;;;11.25;100.00
40650;BME280;26342;42.826;23.992;2023-04-25T05:27:02;94442.59;;;11.28;100.00
40650;BME280;26342;42.826;23.992;2023-04-25T05:29:27;94433.28;;;11.50;100.00
40650;BME280;26342;42.826;23.992;2023-04-25T05:31:53;94436.72;;;11.74;100.00
40650;BME280;26342;42.826;23.992;2023-04-25T05:34:18;94428.09;;;11.82;100.00
40650;BME280;26342;42.826;23.992;2023-04-25T05:36:44;94433.25;;;11.97;100.00
40650;BME280;26342;42.826;23.992;2023-04-25T05:39:16;94431.97;;;12.14;100.00
40650;BME280;26342;42.826;23.992;2023-04-25T05:41:42;94431.59;;;12.20;100.00
40650;BME280;26342;42.826;23.992;2023-04-25T05:44:08;94425.31;;;12.30;100.00
40650;BME280;26342;42.826;23.992;2023-04-25T05:46:34;94421.41;;;12.41;100.00
40650;BME280;26342;42.826;23.992;2023-04-25T05:48:59;94436.22;;;12.52;100.00
40650;BME280;26342;42.826;23.992;2023-04-25T05:51:25;94432.94;;;12.55;100.00
40650;BME280;26342;42.826;23.992;2023-04-25T05:53:51;94440.53;;;12.67;100.00
40650;BME280;26342;42.826;23.992;2023-04-25T05:56:16;94430.50;;;12.59;100.00
40650;BME280;26342;42.826;23.992;2023-04-25T05:58:42;94427.03;;;12.58;100.00
40650;BME280;26342;42.826;23.992;2023-04-25T06:01:07;94432.03;;;12.79;100.00
40650;BME280;26342;42.826;23.992;2023-04-25T06:03:34;94427.47;;;12.79;100.00
40650;BME280;26342;42.826;23.992;2023-04-25T06:05:59;94428.88;;;12.77;100.00
40650;BME280;26342;42.826;23.992;2023-04-25T06:08:25;94427.69;;;12.83;100.00
40650;BME280;26342;42.826;23.992;2023-04-25T06:10:50;94430.88;;;12.85;100.00
40650;BME280;26342;42.826;23.992;2023-04-25T06:13:15;94427.19;;;12.81;100.00
40650;BME280;26342;42.826;23.992;2023-04-25T06:15:41;94429.78;;;12.86;100.00
40650;BME280;26342;42.826;23.992;2023-04-25T06:18:07;94429.50;;;12.88;100.00
40650;BME280;26342;42.826;23.992;2023-04-25T06:20:33;94435.72;;;12.83;100.00
40650;BME280;26342;42.826;23.992;2023-04-25T06:22:58;94429.28;;;12.84;100.00
40650;BME280;26342;42.826;23.992;2023-04-25T06:25:24;94434.34;;;12.85;100.00
40650;BME280;26342;42.826;23.992;2023-04-25T06:27:49;94434.22;;;12.77;100.00
40650;BME280;26342;42.826;23.992;2023-04-25T06:30:14;94440.59;;;12.81;100.00
40650;BME280;26342;42.826;23.992;2023-04-25T06:32:41;94436.53;;;12.83;100.00
40650;BME280;26342;42.826;23.992;2023-04-25T06:35:07;94443.47;;;12.84;100.00
40650;BME280;26342;42.826;23.992;2023-04-25T06:37:32;94454.47;;;12.83;100.00
40650;BME280;26342;42.826;23.992;2023-04-25T06:39:58;94448.88;;;12.79;100.00
40650;BME280;26342;42.826;23.992;2023-04-25T06:42:23;94446.94;;;12.85;100.00
40650;BME280;26342;42.826;23.992;2023-04-25T06:44:49;94449.91;;;12.83;100.00
40650;BME280;26342;42.826;23.992;2023-04-25T06:47:14;94447.66;;;12.91;100.00
40650;BME280;26342;42.826;23.992;2023-04-25T06:49:40;94452.94;;;12.96;100.00
40650;BME280;26342;42.826;23.992;2023-04-25T06:52:05;94450.38;;;13.04;100.00
40650;BME280;26342;42.826;23.992;2023-04-25T06:54:31;94451.28;;;13.13;100.00
40650;BME280;26342;42.826;23.992;2023-04-25T06:56:56;94451.72;;;13.21;100.00
40650;BME280;26342;42.826;23.992;2023-04-25T06:59:22;94454.22;;;13.31;100.00
40650;BME280;26342;42.826;23.992;2023-04-25T07:01:48;94452.72;;;13.38;100.00
40650;BME280;26342;42.826;23.992;2023-04-25T07:04:13;94460.88;;;13.47;100.00
40650;BME280;26342;42.826;23.992;2023-04-25T07:06:39;94456.09;;;13.58;100.00
40650;BME280;26342;42.826;23.992;2023-04-25T07:09:11;94450.47;;;13.59;100.00
40650;BME280;26342;42.826;23.992;2023-04-25T07:11:37;94446.09;;;13.63;100.00
40650;BME280;26342;42.826;23.992;2023-04-25T07:14:02;94454.94;;;13.64;100.00
40650;BME280;26342;42.826;23.992;2023-04-25T07:16:28;94452.56;;;13.76;100.00
40650;BME280;26342;42.826;23.992;2023-04-25T07:18:54;94461.78;;;13.84;100.00
40650;BME280;26342;42.826;23.992;2023-04-25T07:21:19;94459.78;;;13.89;100.00
40650;BME280;26342;42.826;23.992;2023-04-25T07:23:45;94451.03;;;13.97;100.00
40650;BME280;26342;42.826;23.992;2023-04-25T07:26:10;94457.00;;;14.08;100.00
40650;BME280;26342;42.826;23.992;2023-04-25T07:28:36;94450.44;;;14.01;100.00
40650;BME280;26342;42.826;23.992;2023-04-25T07:31:01;94451.81;;;13.98;100.00
40650;BME280;26342;42.826;23.992;2023-04-25T07:33:27;94449.34;;;14.02;100.00
40650;BME280;26342;42.826;23.992;2023-04-25T07:35:53;94443.09;;;14.06;100.00
40650;BME280;26342;42.826;23.992;2023-04-25T07:38:18;94447.44;;;14.16;100.00
40650;BME280;26342;42.826;23.992;2023-04-25T07:40:44;94450.00;;;14.21;100.00
40650;BME280;26342;42.826;23.992;2023-04-25T07:43:10;94453.19;;;14.23;100.00
40650;BME280;26342;42.826;23.992;2023-04-25T07:45:37;94449.03;;;14.17;100.00
40650;BME280;26342;42.826;23.992;2023-04-25T07:48:02;94443.03;;;14.20;100.00
40650;BME280;26342;42.826;23.992;2023-04-25T07:50:28;94450.69;;;14.27;100.00
40650;BME280;26342;42.826;23.992;2023-04-25T07:52:53;94457.44;;;14.38;100.00
40650;BME280;26342;42.826;23.992;2023-04-25T07:55:19;94458.31;;;14.33;100.00
40650;BME280;26342;42.826;23.992;2023-04-25T07:57:45;94448.06;;;14.35;100.00
40650;BME280;26342;42.826;23.992;2023-04-25T08:00:12;94449.25;;;14.43;100.00
40650;BME280;26342;42.826;23.992;2023-04-25T08:02:37;94444.91;;;14.47;100.00
40650;BME280;26342;42.826;23.992;2023-04-25T08:05:03;94446.94;;;14.64;100.00
40650;BME280;26342;42.826;23.992;2023-04-25T08:07:29;94450.84;;;14.80;100.00
40650;BME280;26342;42.826;23.992;2023-04-25T08:09:54;94449.78;;;14.90;100.00
40650;BME280;26342;42.826;23.992;2023-04-25T08:12:20;94437.16;;;14.90;100.00
40650;BME280;26342;42.826;23.992;2023-04-25T08:14:45;94458.91;;;15.02;100.00
40650;BME280;26342;42.826;23.992;2023-04-25T08:17:11;94458.16;;;15.11;100.00
40650;BME280;26342;42.826;23.992;2023-04-25T08:19:36;94460.28;;;15.22;100.00
40650;BME280;26342;42.826;23.992;2023-04-25T08:22:03;94458.56;;;15.26;100.00
40650;BME280;26342;42.826;23.992;2023-04-25T08:24:28;94464.41;;;15.28;100.00
40650;BME280;26342;42.826;23.992;2023-04-25T08:26:54;94461.91;;;15.32;100.00
40650;BME280;26342;42.826;23.992;2023-04-25T08:29:19;94468.13;;;15.41;100.00
40650;BME280;26342;42.826;23.992;2023-04-25T08:31:45;94462.16;;;15.53;100.00
40650;BME280;26342;42.826;23.992;2023-04-25T08:34:10;94470.59;;;15.60;100.00
40650;BME280;26342;42.826;23.992;2023-04-25T08:36:36;94458.22;;;15.50;100.00
40650;BME280;26342;42.826;23.992;2023-04-25T08:39:02;94465.50;;;15.50;100.00
40650;BME280;26342;42.826;23.992;2023-04-25T08:41:27;94462.16;;;15.53;100.00
40650;BME280;26342;42.826;23.992;2023-04-25T08:43:56;94458.84;;;15.56;100.00
40650;BME280;26342;42.826;23.992;2023-04-25T08:46:22;94454.03;;;15.67;100.00
40650;BME280;26342;42.826;23.992;2023-04-25T08:48:48;94454.75;;;15.89;100.00
40650;BME280;26342;42.826;23.992;2023-04-25T08:51:21;94455.28;;;16.17;100.00
40650;BME280;26342;42.826;23.992;2023-04-25T08:53:59;94445.03;;;16.54;100.00
40650;BME280;26342;42.826;23.992;2023-04-25T08:56:28;94442.34;;;16.97;100.00
40650;BME280;26342;42.826;23.992;2023-04-25T08:58:54;94437.66;;;17.41;100.00
40650;BME280;26342;42.826;23.992;2023-04-25T09:01:20;94433.03;;;17.50;98.75
40650;BME280;26342;42.826;23.992;2023-04-25T09:03:46;94433.69;;;17.47;96.50
40650;BME280;26342;42.826;23.992;2023-04-25T09:06:12;94421.69;;;17.74;91.42
40650;BME280;26342;42.826;23.992;2023-04-25T09:08:38;94425.75;;;17.89;97.78
40650;BME280;26342;42.826;23.992;2023-04-25T09:11:06;94424.41;;;17.66;90.02
40650;BME280;26342;42.826;23.992;2023-04-25T09:13:32;94434.34;;;17.82;90.60
40650;BME280;26342;42.826;23.992;2023-04-25T09:15:57;94435.47;;;17.81;91.27
40650;BME280;26342;42.826;23.992;2023-04-25T09:18:28;94427.22;;;17.69;93.57
40650;BME280;26342;42.826;23.992;2023-04-25T09:20:54;94427.00;;;17.45;85.05
40650;BME280;26342;42.826;23.992;2023-04-25T09:23:21;94437.50;;;17.38;85.34
40650;BME280;26342;42.826;23.992;2023-04-25T09:25:52;94433.72;;;17.39;88.98
40650;BME280;26342;42.826;23.992;2023-04-25T09:28:26;94432.63;;;17.31;89.09
40650;BME280;26342;42.826;23.992;2023-04-25T09:30:56;94427.47;;;17.55;92.27
40650;BME280;26342;42.826;23.992;2023-04-25T09:33:28;94421.75;;;17.95;100.00
40650;BME280;26342;42.826;23.992;2023-04-25T09:36:07;94445.91;;;18.21;91.50
40650;BME280;26342;42.826;23.992;2023-04-25T09:38:45;94449.88;;;18.15;83.54
40650;BME280;26342;42.826;23.992;2023-04-25T09:41:11;94442.81;;;17.72;87.37
40650;BME280;26342;42.826;23.992;2023-04-25T09:43:37;94433.28;;;17.11;89.48
40650;BME280;26342;42.826;23.992;2023-04-25T09:46:08;94424.16;;;16.77;94.96
40650;BME280;26342;42.826;23.992;2023-04-25T09:48:33;94447.59;;;16.85;94.75
40650;BME280;26342;42.826;23.992;2023-04-25T09:53:45;94442.97;;;17.03;95.72
40650;BME280;26342;42.826;23.992;2023-04-25T09:56:12;94432.97;;;17.03;100.00
40650;BME280;26342;42.826;23.992;2023-04-25T09:58:39;94430.91;;;17.18;97.36
40650;BME280;26342;42.826;23.992;2023-04-25T10:01:10;94425.50;;;17.18;99.63
40650;BME280;26342;42.826;23.992;2023-04-25T10:03:39;94419.19;;;17.05;95.92
40650;BME280;26342;42.826;23.992;2023-04-25T10:06:12;94436.44;;;17.13;89.20
40650;BME280;26342;42.826;23.992;2023-04-25T10:08:40;94431.69;;;17.18;87.24
40650;BME280;26342;42.826;23.992;2023-04-25T10:11:07;94435.34;;;17.14;84.59
40650;BME280;26342;42.826;23.992;2023-04-25T10:13:35;94418.41;;;16.96;81.45
40650;BME280;26342;42.826;23.992;2023-04-25T10:16:03;94424.59;;;16.88;74.75
40650;BME280;26342;42.826;23.992;2023-04-25T10:18:30;94425.22;;;16.50;64.77
40650;BME280;26342;42.826;23.992;2023-04-25T10:20:57;94417.94;;;16.51;70.66
40650;BME280;26342;42.826;23.992;2023-04-25T10:23:23;94414.44;;;16.59;69.64
40650;BME280;26342;42.826;23.992;2023-04-25T10:25:53;94404.66;;;16.80;65.15
40650;BME280;26342;42.826;23.992;2023-04-25T10:28:19;94402.09;;;16.92;61.74
40650;BME280;26342;42.826;23.992;2023-04-25T10:31:02;94401.09;;;17.23;63.47
40650;BME280;26342;42.826;23.992;2023-04-25T10:36:12;94379.16;;;17.33;62.74
40650;BME280;26342;42.826;23.992;2023-04-25T10:38:39;94386.00;;;17.30;66.24
40650;BME280;26342;42.826;23.992;2023-04-25T10:41:09;94364.31;;;17.56;70.43
40650;BME280;26342;42.826;23.992;2023-04-25T10:43:43;94370.88;;;18.27;69.52
40650;BME280;26342;42.826;23.992;2023-04-25T10:46:35;94368.25;;;18.81;64.81
40650;BME280;26342;42.826;23.992;2023-04-25T10:49:02;94365.06;;;18.79;56.60
40650;BME280;26342;42.826;23.992;2023-04-25T10:51:29;94368.63;;;18.71;65.37
40650;BME280;26342;42.826;23.992;2023-04-25T10:56:24;94357.16;;;18.53;59.57
40650;BME280;26342;42.826;23.992;2023-04-25T10:58:50;94363.31;;;18.41;59.41
40650;BME280;26342;42.826;23.992;2023-04-25T11:01:20;94365.88;;;18.17;65.06
40650;BME280;26342;42.826;23.992;2023-04-25T11:03:46;94370.81;;;17.94;66.99
40650;BME280;26342;42.826;23.992;2023-04-25T11:07:38;94369.63;;;17.74;71.10
40650;BME280;26342;42.826;23.992;2023-04-25T11:09:36;94366.81;;;17.70;72.94
40650;BME280;26342;42.826;23.992;2023-04-25T11:12:03;94368.38;;;17.71;74.27
40650;BME280;26342;42.826;23.992;2023-04-25T11:14:31;94362.66;;;17.73;73.22
40650;BME280;26342;42.826;23.992;2023-04-25T11:16:58;94366.00;;;17.70;68.08
40650;BME280;26342;42.826;23.992;2023-04-25T11:19:26;94365.38;;;17.64;68.68
40650;BME280;26342;42.826;23.992;2023-04-25T11:21:56;94369.00;;;17.68;68.20
40650;BME280;26342;42.826;23.992;2023-04-25T11:24:32;94371.97;;;17.46;67.66
40650;BME280;26342;42.826;23.992;2023-04-25T11:26:59;94372.00;;;17.37;71.32
40650;BME280;26342;42.826;23.992;2023-04-25T11:29:29;94377.00;;;17.09;72.72
40650;BME280;26342;42.826;23.992;2023-04-25T11:31:55;94400.81;;;17.07;73.81
40650;BME280;26342;42.826;23.992;2023-04-25T11:34:23;94398.31;;;16.76;70.74
40650;BME280;26342;42.826;23.992;2023-04-25T11:36:50;94420.03;;;16.71;72.91
40650;BME280;26342;42.826;23.992;2023-04-25T11:39:15;94436.31;;;16.57;73.30
40650;BME280;26342;42.826;23.992;2023-04-25T11:41:41;94438.78;;;16.10;81.30
40650;BME280;26342;42.826;23.992;2023-04-25T11:44:07;94460.50;;;15.34;94.81
40650;BME280;26342;42.826;23.992;2023-04-25T11:46:36;94461.59;;;15.02;100.00
40650;BME280;26342;42.826;23.992;2023-04-25T11:49:02;94461.38;;;14.76;100.00
40650;BME280;26342;42.826;23.992;2023-04-25T11:51:29;94453.56;;;14.30;100.00
40650;BME280;26342;42.826;23.992;2023-04-25T11:53:55;94434.06;;;14.38;100.00
40650;BME280;26342;42.826;23.992;2023-04-25T11:56:20;94423.41;;;14.92;100.00
40650;BME280;26342;42.826;23.992;2023-04-25T11:59:03;94411.31;;;15.65;100.00
40650;BME280;26342;42.826;23.992;2023-04-25T12:03:56;94376.13;;;16.62;100.00
40650;BME280;26342;42.826;23.992;2023-04-25T12:06:26;94371.81;;;16.95;93.29
40650;BME280;26342;42.826;23.992;2023-04-25T12:09:07;94364.22;;;16.80;90.75
40650;BME280;26342;42.826;23.992;2023-04-25T12:11:40;94351.88;;;16.62;83.77
40650;BME280;26342;42.826;23.992;2023-04-25T12:14:06;94340.94;;;16.84;85.84
40650;BME280;26342;42.826;23.992;2023-04-25T12:19:07;94326.00;;;17.34;72.35
40650;BME280;26342;42.826;23.992;2023-04-25T12:21:33;94313.06;;;17.56;64.40
40650;BME280;26342;42.826;23.992;2023-04-25T12:24:37;94324.25;;;17.97;73.61
40650;BME280;26342;42.826;23.992;2023-04-25T12:27:05;94308.25;;;17.92;72.51
40650;BME280;26342;42.826;23.992;2023-04-25T12:29:33;94321.88;;;17.95;71.12
40650;BME280;26342;42.826;23.992;2023-04-25T12:31:59;94310.88;;;18.21;69.32
40650;BME280;26342;42.826;23.992;2023-04-25T12:34:28;94315.34;;;18.38;70.48
40650;BME280;26342;42.826;23.992;2023-04-25T12:36:53;94318.03;;;18.59;70.42
40650;BME280;26342;42.826;23.992;2023-04-25T12:39:21;94321.31;;;18.64;76.08
40650;BME280;26342;42.826;23.992;2023-04-25T12:41:51;94325.72;;;18.48;69.72
40650;BME280;26342;42.826;23.992;2023-04-25T12:44:22;94324.56;;;18.16;68.25
40650;BME280;26342;42.826;23.992;2023-04-25T12:46:48;94332.94;;;18.23;78.51
40650;BME280;26342;42.826;23.992;2023-04-25T12:49:13;94319.69;;;18.30;70.20
40650;BME280;26342;42.826;23.992;2023-04-25T12:51:39;94315.63;;;18.24;64.16
40650;BME280;26342;42.826;23.992;2023-04-25T12:54:05;94300.75;;;18.18;66.31
40650;BME280;26342;42.826;23.992;2023-04-25T12:56:34;94301.00;;;18.04;70.37